sensor_id;sensor_type;location;lat;lon;timestamp;P1;durP1;ratioP1;P2;durP2;ratioP2
76854;SDS011;66343;44.588;33.450;2023-07-13T00:00:39;7.13;;;2.30;;
76854;SDS011;66343;44.588;33.450;2023-07-13T00:03:09;6.40;;;2.10;;
76854;SDS011;66343;44.588;33.450;2023-07-13T00:05:41;6.03;;;2.03;;
76854;SDS011;66343;44.588;33.450;2023-07-13T00:08:17;6.40;;;2.47;;
76854;SDS011;66343;44.588;33.450;2023-07-13T00:10:46;6.05;;;2.28;;
76854;SDS011;66343;44.588;33.450;2023-07-13T00:13:17;6.20;;;2.22;;
76854;SDS011;66343;44.588;33.450;2023-07-13T00:15:46;6.38;;;2.50;;
76854;SDS011;66343;44.588;33.450;2023-07-13T00:18:20;6.70;;;2.25;;
76854;SDS011;66343;44.588;33.450;2023-07-13T00:20:49;6.70;;;2.20;;
76854;SDS011;66343;44.588;33.450;2023-07-13T00:23:18;4.85;;;1.65;;
76854;SDS011;66343;44.588;33.450;2023-07-13T00:25:51;5.60;;;1.75;;
76854;SDS011;66343;44.588;33.450;2023-07-13T00:28:23;5.65;;;2.25;;
76854;SDS011;66343;44.588;33.450;2023-07-13T00:30:55;7.00;;;2.63;;
76854;SDS011;66343;44.588;33.450;2023-07-13T00:33:25;7.78;;;2.60;;
76854;SDS011;66343;44.588;33.450;2023-07-13T00:35:57;6.75;;;2.35;;
76854;SDS011;66343;44.588;33.450;2023-07-13T00:38:26;6.65;;;2.40;;
76854;SDS011;66343;44.588;33.450;2023-07-13T00:40:56;6.25;;;1.98;;
76854;SDS011;66343;44.588;33.450;2023-07-13T00:43:26;6.03;;;2.08;;
76854;SDS011;66343;44.588;33.450;2023-07-13T00:48:53;4.35;;;1.73;;
76854;SDS011;66343;44.588;33.450;2023-07-13T00:51:29;5.55;;;2.20;;
76854;SDS011;66343;44.588;33.450;2023-07-13T00:54:06;5.22;;;1.85;;
76854;SDS011;66343;44.588;33.450;2023-07-13T00:56:41;4.95;;;1.80;;
76854;SDS011;66343;44.588;33.450;2023-07-13T00:59:15;5.10;;;1.90;;
76854;SDS011;66343;44.588;33.450;2023-07-13T01:01:47;6.00;;;2.00;;
76854;SDS011;66343;44.588;33.450;2023-07-13T01:04:20;5.90;;;2.00;;
76854;SDS011;66343;44.588;33.450;2023-07-13T01:06:52;6.25;;;1.88;;
76854;SDS011;66343;44.588;33.450;2023-07-13T01:09:23;6.85;;;2.17;;
76854;SDS011;66343;44.588;33.450;2023-07-13T01:11:56;7.82;;;3.40;;
76854;SDS011;66343;44.588;33.450;2023-07-13T01:14:25;8.90;;;3.80;;
76854;SDS011;66343;44.588;33.450;2023-07-13T01:16:56;7.70;;;3.38;;
76854;SDS011;66343;44.588;33.450;2023-07-13T01:19:32;7.18;;;3.08;;
76854;SDS011;66343;44.588;33.450;2023-07-13T01:22:11;8.10;;;3.30;;
76854;SDS011;66343;44.588;33.450;2023-07-13T01:24:44;7.35;;;2.70;;
76854;SDS011;66343;44.588;33.450;2023-07-13T01:29:46;8.07;;;2.65;;
76854;SDS011;66343;44.588;33.450;2023-07-13T01:32:21;8.27;;;3.10;;
76854;SDS011;66343;44.588;33.450;2023-07-13T01:34:55;7.57;;;2.97;;
76854;SDS011;66343;44.588;33.450;2023-07-13T01:37:24;7.15;;;2.70;;
76854;SDS011;66343;44.588;33.450;2023-07-13T01:39:58;6.60;;;2.67;;
76854;SDS011;66343;44.588;33.450;2023-07-13T01:42:34;6.75;;;2.85;;
76854;SDS011;66343;44.588;33.450;2023-07-13T01:45:08;7.28;;;2.55;;
76854;SDS011;66343;44.588;33.450;2023-07-13T01:47:38;6.78;;;2.53;;
76854;SDS011;66343;44.588;33.450;2023-07-13T01:50:09;7.85;;;2.40;;
76854;SDS011;66343;44.588;33.450;2023-07-13T01:52:42;6.65;;;2.20;;
76854;SDS011;66343;44.588;33.450;2023-07-13T01:55:11;7.00;;;2.45;;
76854;SDS011;66343;44.588;33.450;2023-07-13T01:57:48;5.32;;;2.13;;
76854;SDS011;66343;44.588;33.450;2023-07-13T02:00:20;6.68;;;2.20;;
76854;SDS011;66343;44.588;33.450;2023-07-13T02:02:49;5.80;;;2.17;;
76854;SDS011;66343;44.588;33.450;2023-07-13T02:05:19;7.38;;;2.28;;
76854;SDS011;66343;44.588;33.450;2023-07-13T02:07:48;6.20;;;2.40;;
76854;SDS011;66343;44.588;33.450;2023-07-13T02:10:20;6.00;;;2.13;;
76854;SDS011;66343;44.588;33.450;2023-07-13T02:12:50;7.35;;;2.13;;
76854;SDS011;66343;44.588;33.450;2023-07-13T02:15:21;5.65;;;2.22;;
76854;SDS011;66343;44.588;33.450;2023-07-13T02:17:51;6.13;;;2.20;;
76854;SDS011;66343;44.588;33.450;2023-07-13T02:20:20;6.28;;;2.22;;
76854;SDS011;66343;44.588;33.450;2023-07-13T02:22:50;6.55;;;2.00;;
76854;SDS011;66343;44.588;33.450;2023-07-13T02:25:21;6.60;;;2.42;;
76854;SDS011;66343;44.588;33.450;2023-07-13T02:27:59;6.90;;;1.90;;
76854;SDS011;66343;44.588;33.450;2023-07-13T02:30:29;5.47;;;1.88;;
76854;SDS011;66343;44.588;33.450;2023-07-13T02:33:01;5.38;;;1.80;;
76854;SDS011;66343;44.588;33.450;2023-07-13T02:35:30;5.13;;;2.10;;
76854;SDS011;66343;44.588;33.450;2023-07-13T02:37:59;5.70;;;2.10;;
76854;SDS011;66343;44.588;33.450;2023-07-13T02:40:31;5.07;;;2.17;;
76854;SDS011;66343;44.588;33.450;2023-07-13T02:43:03;5.50;;;2.20;;
76854;SDS011;66343;44.588;33.450;2023-07-13T02:45:33;5.15;;;1.95;;
76854;SDS011;66343;44.588;33.450;2023-07-13T02:48:03;7.25;;;2.20;;
76854;SDS011;66343;44.588;33.450;2023-07-13T02:50:32;5.28;;;1.90;;
76854;SDS011;66343;44.588;33.450;2023-07-13T02:53:01;7.05;;;2.35;;
76854;SDS011;66343;44.588;33.450;2023-07-13T02:55:31;6.03;;;2.35;;
76854;SDS011;66343;44.588;33.450;2023-07-13T02:58:00;6.47;;;2.22;;
76854;SDS011;66343;44.588;33.450;2023-07-13T03:00:30;7.35;;;2.40;;
76854;SDS011;66343;44.588;33.450;2023-07-13T03:02:59;8.45;;;2.42;;
76854;SDS011;66343;44.588;33.450;2023-07-13T03:05:28;7.85;;;2.47;;
76854;SDS011;66343;44.588;33.450;2023-07-13T03:07:58;6.18;;;2.13;;
76854;SDS011;66343;44.588;33.450;2023-07-13T03:10:31;5.47;;;2.05;;
76854;SDS011;66343;44.588;33.450;2023-07-13T03:13:01;6.90;;;2.70;;
76854;SDS011;66343;44.588;33.450;2023-07-13T03:15:32;6.75;;;2.50;;
76854;SDS011;66343;44.588;33.450;2023-07-13T03:18:04;6.03;;;2.00;;
76854;SDS011;66343;44.588;33.450;2023-07-13T03:20:34;8.40;;;2.30;;
76854;SDS011;66343;44.588;33.450;2023-07-13T03:23:07;5.40;;;2.20;;
76854;SDS011;66343;44.588;33.450;2023-07-13T03:25:39;7.05;;;2.53;;
76854;SDS011;66343;44.588;33.450;2023-07-13T03:28:09;6.28;;;2.13;;
76854;SDS011;66343;44.588;33.450;2023-07-13T03:30:44;6.75;;;2.38;;
76854;SDS011;66343;44.588;33.450;2023-07-13T03:33:17;8.02;;;2.38;;
76854;SDS011;66343;44.588;33.450;2023-07-13T03:35:47;5.53;;;2.10;;
76854;SDS011;66343;44.588;33.450;2023-07-13T03:38:17;7.15;;;2.13;;
76854;SDS011;66343;44.588;33.450;2023-07-13T03:40:48;6.10;;;1.83;;
76854;SDS011;66343;44.588;33.450;2023-07-13T03:43:18;6.07;;;2.28;;
76854;SDS011;66343;44.588;33.450;2023-07-13T03:45:52;9.05;;;2.80;;
76854;SDS011;66343;44.588;33.450;2023-07-13T03:48:33;8.65;;;2.30;;
76854;SDS011;66343;44.588;33.450;2023-07-13T03:51:02;6.10;;;2.40;;
76854;SDS011;66343;44.588;33.450;2023-07-13T03:53:31;7.80;;;2.40;;
76854;SDS011;66343;44.588;33.450;2023-07-13T03:56:03;8.25;;;2.60;;
76854;SDS011;66343;44.588;33.450;2023-07-13T03:58:35;5.65;;;2.33;;
76854;SDS011;66343;44.588;33.450;2023-07-13T04:01:30;6.45;;;2.42;;
76854;SDS011;66343;44.588;33.450;2023-07-13T04:04:02;7.43;;;2.83;;
76854;SDS011;66343;44.588;33.450;2023-07-13T04:06:37;6.70;;;2.75;;
76854;SDS011;66343;44.588;33.450;2023-07-13T04:09:12;8.93;;;3.67;;
76854;SDS011;66343;44.588;33.450;2023-07-13T04:11:42;7.20;;;2.97;;
76854;SDS011;66343;44.588;33.450;2023-07-13T04:14:15;7.82;;;3.40;;
76854;SDS011;66343;44.588;33.450;2023-07-13T04:16:46;8.52;;;3.15;;
76854;SDS011;66343;44.588;33.450;2023-07-13T04:19:15;7.55;;;3.05;;
76854;SDS011;66343;44.588;33.450;2023-07-13T04:21:47;8.63;;;3.08;;
76854;SDS011;66343;44.588;33.450;2023-07-13T04:24:16;7.80;;;2.97;;
76854;SDS011;66343;44.588;33.450;2023-07-13T04:26:49;7.70;;;2.53;;
76854;SDS011;66343;44.588;33.450;2023-07-13T04:29:22;8.15;;;2.83;;
76854;SDS011;66343;44.588;33.450;2023-07-13T04:31:51;7.70;;;2.67;;
76854;SDS011;66343;44.588;33.450;2023-07-13T04:34:25;7.30;;;2.65;;
76854;SDS011;66343;44.588;33.450;2023-07-13T04:36:54;7.57;;;2.38;;
76854;SDS011;66343;44.588;33.450;2023-07-13T04:39:23;7.72;;;2.72;;
76854;SDS011;66343;44.588;33.450;2023-07-13T04:41:52;5.60;;;2.22;;
76854;SDS011;66343;44.588;33.450;2023-07-13T04:44:24;7.18;;;2.22;;
76854;SDS011;66343;44.588;33.450;2023-07-13T04:46:59;7.88;;;2.80;;
76854;SDS011;66343;44.588;33.450;2023-07-13T04:49:30;7.90;;;2.30;;
76854;SDS011;66343;44.588;33.450;2023-07-13T04:52:01;6.05;;;2.50;;
76854;SDS011;66343;44.588;33.450;2023-07-13T04:54:30;6.30;;;2.22;;
76854;SDS011;66343;44.588;33.450;2023-07-13T04:56:59;8.60;;;2.63;;
76854;SDS011;66343;44.588;33.450;2023-07-13T04:59:32;7.85;;;2.47;;
76854;SDS011;66343;44.588;33.450;2023-07-13T05:02:02;6.93;;;2.13;;
76854;SDS011;66343;44.588;33.450;2023-07-13T05:04:34;6.03;;;2.15;;
76854;SDS011;66343;44.588;33.450;2023-07-13T05:07:05;7.43;;;2.20;;
76854;SDS011;66343;44.588;33.450;2023-07-13T05:09:34;4.85;;;1.60;;
76854;SDS011;66343;44.588;33.450;2023-07-13T05:12:04;5.45;;;1.83;;
76854;SDS011;66343;44.588;33.450;2023-07-13T05:14:35;6.82;;;2.25;;
76854;SDS011;66343;44.588;33.450;2023-07-13T05:17:05;6.05;;;2.17;;
76854;SDS011;66343;44.588;33.450;2023-07-13T05:19:40;10.32;;;2.25;;
76854;SDS011;66343;44.588;33.450;2023-07-13T05:22:10;5.18;;;1.70;;
76854;SDS011;66343;44.588;33.450;2023-07-13T05:24:44;5.55;;;1.67;;
76854;SDS011;66343;44.588;33.450;2023-07-13T05:27:16;7.65;;;2.20;;
76854;SDS011;66343;44.588;33.450;2023-07-13T05:29:45;9.05;;;2.20;;
76854;SDS011;66343;44.588;33.450;2023-07-13T05:32:17;7.32;;;1.80;;
76854;SDS011;66343;44.588;33.450;2023-07-13T05:34:52;7.03;;;2.10;;
76854;SDS011;66343;44.588;33.450;2023-07-13T05:37:23;4.78;;;1.75;;
76854;SDS011;66343;44.588;33.450;2023-07-13T05:39:53;5.85;;;2.38;;
76854;SDS011;66343;44.588;33.450;2023-07-13T05:42:30;7.50;;;1.90;;
76854;SDS011;66343;44.588;33.450;2023-07-13T05:44:59;5.25;;;1.83;;
76854;SDS011;66343;44.588;33.450;2023-07-13T05:47:28;15.63;;;3.17;;
76854;SDS011;66343;44.588;33.450;2023-07-13T05:49:58;11.02;;;3.15;;
76854;SDS011;66343;44.588;33.450;2023-07-13T05:52:27;10.13;;;2.47;;
76854;SDS011;66343;44.588;33.450;2023-07-13T05:54:56;6.18;;;2.00;;
76854;SDS011;66343;44.588;33.450;2023-07-13T05:57:47;9.02;;;2.53;;
76854;SDS011;66343;44.588;33.450;2023-07-13T06:00:21;8.95;;;2.65;;
76854;SDS011;66343;44.588;33.450;2023-07-13T06:02:53;6.85;;;1.90;;
76854;SDS011;66343;44.588;33.450;2023-07-13T06:05:27;6.93;;;1.90;;
76854;SDS011;66343;44.588;33.450;2023-07-13T06:07:59;6.13;;;2.33;;
76854;SDS011;66343;44.588;33.450;2023-07-13T06:10:37;6.43;;;1.85;;
76854;SDS011;66343;44.588;33.450;2023-07-13T06:13:07;8.15;;;2.10;;
76854;SDS011;66343;44.588;33.450;2023-07-13T06:15:39;7.72;;;2.10;;
76854;SDS011;66343;44.588;33.450;2023-07-13T06:18:17;5.93;;;2.10;;
76854;SDS011;66343;44.588;33.450;2023-07-13T06:20:46;5.30;;;1.98;;
76854;SDS011;66343;44.588;33.450;2023-07-13T06:23:18;5.65;;;2.08;;
76854;SDS011;66343;44.588;33.450;2023-07-13T06:25:47;6.75;;;1.80;;
76854;SDS011;66343;44.588;33.450;2023-07-13T06:28:20;6.75;;;2.13;;
76854;SDS011;66343;44.588;33.450;2023-07-13T06:30:49;5.13;;;1.73;;
76854;SDS011;66343;44.588;33.450;2023-07-13T06:33:18;7.97;;;2.10;;
76854;SDS011;66343;44.588;33.450;2023-07-13T06:35:50;6.68;;;1.88;;
76854;SDS011;66343;44.588;33.450;2023-07-13T06:38:22;4.65;;;1.70;;
76854;SDS011;66343;44.588;33.450;2023-07-13T06:40:51;6.75;;;2.22;;
76854;SDS011;66343;44.588;33.450;2023-07-13T06:43:20;7.80;;;2.08;;
76854;SDS011;66343;44.588;33.450;2023-07-13T06:45:50;5.90;;;2.00;;
76854;SDS011;66343;44.588;33.450;2023-07-13T06:48:20;6.35;;;2.00;;
76854;SDS011;66343;44.588;33.450;2023-07-13T06:50:50;5.97;;;2.03;;
76854;SDS011;66343;44.588;33.450;2023-07-13T06:53:20;7.78;;;2.42;;
76854;SDS011;66343;44.588;33.450;2023-07-13T06:55:50;6.90;;;2.22;;
76854;SDS011;66343;44.588;33.450;2023-07-13T06:58:23;6.32;;;1.83;;
76854;SDS011;66343;44.588;33.450;2023-07-13T07:00:56;5.07;;;2.15;;
76854;SDS011;66343;44.588;33.450;2023-07-13T07:03:28;6.72;;;2.30;;
76854;SDS011;66343;44.588;33.450;2023-07-13T07:06:00;7.85;;;2.40;;
76854;SDS011;66343;44.588;33.450;2023-07-13T07:08:35;6.65;;;2.50;;
76854;SDS011;66343;44.588;33.450;2023-07-13T07:11:05;6.30;;;2.22;;
76854;SDS011;66343;44.588;33.450;2023-07-13T07:13:38;5.53;;;1.88;;
76854;SDS011;66343;44.588;33.450;2023-07-13T07:16:07;6.45;;;2.22;;
76854;SDS011;66343;44.588;33.450;2023-07-13T07:18:40;6.05;;;2.58;;
76854;SDS011;66343;44.588;33.450;2023-07-13T07:21:09;7.22;;;2.58;;
76854;SDS011;66343;44.588;33.450;2023-07-13T07:23:40;6.03;;;2.20;;
76854;SDS011;66343;44.588;33.450;2023-07-13T07:26:13;5.70;;;2.20;;
76854;SDS011;66343;44.588;33.450;2023-07-13T07:28:44;7.68;;;2.22;;
76854;SDS011;66343;44.588;33.450;2023-07-13T07:31:33;5.90;;;2.30;;
76854;SDS011;66343;44.588;33.450;2023-07-13T07:34:08;7.85;;;2.35;;
76854;SDS011;66343;44.588;33.450;2023-07-13T07:36:39;6.20;;;2.17;;
76854;SDS011;66343;44.588;33.450;2023-07-13T07:39:12;8.02;;;2.30;;
76854;SDS011;66343;44.588;33.450;2023-07-13T07:41:42;6.35;;;2.33;;
76854;SDS011;66343;44.588;33.450;2023-07-13T07:44:26;8.02;;;2.75;;
76854;SDS011;66343;44.588;33.450;2023-07-13T07:46:59;7.60;;;2.72;;
76854;SDS011;66343;44.588;33.450;2023-07-13T07:49:30;7.38;;;2.67;;
76854;SDS011;66343;44.588;33.450;2023-07-13T07:52:02;6.28;;;2.25;;
76854;SDS011;66343;44.588;33.450;2023-07-13T07:54:35;7.03;;;2.00;;
76854;SDS011;66343;44.588;33.450;2023-07-13T07:57:08;7.00;;;2.28;;
76854;SDS011;66343;44.588;33.450;2023-07-13T07:59:42;8.75;;;2.67;;
76854;SDS011;66343;44.588;33.450;2023-07-13T08:02:15;7.38;;;2.85;;
76854;SDS011;66343;44.588;33.450;2023-07-13T08:05:05;8.15;;;2.63;;
76854;SDS011;66343;44.588;33.450;2023-07-13T08:07:41;7.70;;;2.63;;
76854;SDS011;66343;44.588;33.450;2023-07-13T08:10:12;8.13;;;2.72;;
76854;SDS011;66343;44.588;33.450;2023-07-13T08:12:45;7.80;;;3.08;;
76854;SDS011;66343;44.588;33.450;2023-07-13T08:15:34;9.88;;;3.20;;
76854;SDS011;66343;44.588;33.450;2023-07-13T08:18:04;6.80;;;2.85;;
76854;SDS011;66343;44.588;33.450;2023-07-13T08:20:38;7.53;;;2.72;;
76854;SDS011;66343;44.588;33.450;2023-07-13T08:23:09;7.78;;;2.72;;
76854;SDS011;66343;44.588;33.450;2023-07-13T08:25:45;8.85;;;2.40;;
76854;SDS011;66343;44.588;33.450;2023-07-13T08:28:22;6.90;;;2.45;;
76854;SDS011;66343;44.588;33.450;2023-07-13T08:30:55;7.57;;;2.38;;
76854;SDS011;66343;44.588;33.450;2023-07-13T08:33:29;7.82;;;2.03;;
76854;SDS011;66343;44.588;33.450;2023-07-13T08:36:00;7.20;;;2.45;;
76854;SDS011;66343;44.588;33.450;2023-07-13T08:38:34;7.75;;;2.67;;
76854;SDS011;66343;44.588;33.450;2023-07-13T08:41:15;6.45;;;2.20;;
76854;SDS011;66343;44.588;33.450;2023-07-13T08:43:50;7.15;;;2.85;;
76854;SDS011;66343;44.588;33.450;2023-07-13T08:46:30;7.40;;;2.95;;
76854;SDS011;66343;44.588;33.450;2023-07-13T08:49:13;6.32;;;2.20;;
76854;SDS011;66343;44.588;33.450;2023-07-13T08:57:21;7.28;;;2.72;;
76854;SDS011;66343;44.588;33.450;2023-07-13T08:59:58;6.35;;;2.20;;
76854;SDS011;66343;44.588;33.450;2023-07-13T09:05:05;8.95;;;2.50;;
76854;SDS011;66343;44.588;33.450;2023-07-13T09:07:55;7.72;;;2.83;;
76854;SDS011;66343;44.588;33.450;2023-07-13T09:11:32;7.85;;;2.75;;
76854;SDS011;66343;44.588;33.450;2023-07-13T09:14:06;6.43;;;2.08;;
76854;SDS011;66343;44.588;33.450;2023-07-13T09:16:48;5.05;;;1.85;;
76854;SDS011;66343;44.588;33.450;2023-07-13T09:19:21;5.15;;;1.70;;
76854;SDS011;66343;44.588;33.450;2023-07-13T09:21:57;6.03;;;1.95;;
76854;SDS011;66343;44.588;33.450;2023-07-13T09:27:21;6.60;;;2.00;;
76854;SDS011;66343;44.588;33.450;2023-07-13T09:32:47;6.75;;;1.90;;
76854;SDS011;66343;44.588;33.450;2023-07-13T09:35:25;5.32;;;1.90;;
76854;SDS011;66343;44.588;33.450;2023-07-13T09:37:59;5.10;;;1.73;;
76854;SDS011;66343;44.588;33.450;2023-07-13T09:44:08;12.80;;;2.50;;
76854;SDS011;66343;44.588;33.450;2023-07-13T09:46:47;6.70;;;2.13;;
76854;SDS011;66343;44.588;33.450;2023-07-13T09:49:25;7.75;;;3.00;;
76854;SDS011;66343;44.588;33.450;2023-07-13T09:52:06;7.45;;;2.17;;
76854;SDS011;66343;44.588;33.450;2023-07-13T09:54:45;7.32;;;1.90;;
76854;SDS011;66343;44.588;33.450;2023-07-13T09:57:19;7.63;;;2.03;;
76854;SDS011;66343;44.588;33.450;2023-07-13T10:00:18;5.07;;;1.85;;
76854;SDS011;66343;44.588;33.450;2023-07-13T10:03:01;6.50;;;2.05;;
76854;SDS011;66343;44.588;33.450;2023-07-13T10:05:39;7.95;;;2.28;;
76854;SDS011;66343;44.588;33.450;2023-07-13T10:08:24;7.35;;;2.30;;
76854;SDS011;66343;44.588;33.450;2023-07-13T10:11:08;6.63;;;1.90;;
76854;SDS011;66343;44.588;33.450;2023-07-13T10:13:43;7.80;;;2.20;;
76854;SDS011;66343;44.588;33.450;2023-07-13T10:16:18;7.50;;;2.13;;
76854;SDS011;66343;44.588;33.450;2023-07-13T10:25:20;6.78;;;2.33;;
76854;SDS011;66343;44.588;33.450;2023-07-13T10:30:54;6.13;;;2.10;;
76854;SDS011;66343;44.588;33.450;2023-07-13T10:33:27;8.95;;;2.30;;
76854;SDS011;66343;44.588;33.450;2023-07-13T10:36:01;6.47;;;2.25;;
76854;SDS011;66343;44.588;33.450;2023-07-13T10:38:55;8.02;;;2.50;;
76854;SDS011;66343;44.588;33.450;2023-07-13T10:41:31;7.90;;;2.13;;
76854;SDS011;66343;44.588;33.450;2023-07-13T10:46:48;7.65;;;1.92;;
76854;SDS011;66343;44.588;33.450;2023-07-13T10:49:23;6.38;;;2.10;;
76854;SDS011;66343;44.588;33.450;2023-07-13T10:52:00;5.45;;;2.20;;
76854;SDS011;66343;44.588;33.450;2023-07-13T10:54:36;5.13;;;1.70;;
76854;SDS011;66343;44.588;33.450;2023-07-13T10:59:42;9.23;;;2.25;;
76854;SDS011;66343;44.588;33.450;2023-07-13T11:02:36;7.30;;;2.08;;
76854;SDS011;66343;44.588;33.450;2023-07-13T11:05:41;8.85;;;2.00;;
76854;SDS011;66343;44.588;33.450;2023-07-13T11:08:35;5.90;;;1.90;;
76854;SDS011;66343;44.588;33.450;2023-07-13T11:14:01;7.95;;;1.90;;
76854;SDS011;66343;44.588;33.450;2023-07-13T11:16:45;5.80;;;1.92;;
76854;SDS011;66343;44.588;33.450;2023-07-13T11:24:48;10.10;;;1.95;;
76854;SDS011;66343;44.588;33.450;2023-07-13T11:27:37;6.75;;;1.88;;
76854;SDS011;66343;44.588;33.450;2023-07-13T11:41:52;6.35;;;1.80;;
76854;SDS011;66343;44.588;33.450;2023-07-13T11:44:32;7.82;;;2.53;;
76854;SDS011;66343;44.588;33.450;2023-07-13T11:47:17;7.25;;;1.92;;
76854;SDS011;66343;44.588;33.450;2023-07-13T11:49:55;6.40;;;1.90;;
76854;SDS011;66343;44.588;33.450;2023-07-13T11:52:35;7.38;;;2.05;;
76854;SDS011;66343;44.588;33.450;2023-07-13T11:55:14;7.25;;;1.95;;
76854;SDS011;66343;44.588;33.450;2023-07-13T11:57:51;7.57;;;2.03;;
76854;SDS011;66343;44.588;33.450;2023-07-13T12:00:31;7.85;;;2.13;;
76854;SDS011;66343;44.588;33.450;2023-07-13T12:03:06;5.60;;;2.03;;
76854;SDS011;66343;44.588;33.450;2023-07-13T12:05:54;6.18;;;1.80;;
76854;SDS011;66343;44.588;33.450;2023-07-13T12:08:37;7.32;;;1.98;;
76854;SDS011;66343;44.588;33.450;2023-07-13T12:11:18;7.32;;;1.83;;
76854;SDS011;66343;44.588;33.450;2023-07-13T12:13:53;6.25;;;1.90;;
76854;SDS011;66343;44.588;33.450;2023-07-13T12:16:32;6.38;;;1.92;;
76854;SDS011;66343;44.588;33.450;2023-07-13T12:19:09;5.32;;;2.00;;
76854;SDS011;66343;44.588;33.450;2023-07-13T12:21:52;6.43;;;1.80;;
76854;SDS011;66343;44.588;33.450;2023-07-13T12:24:43;6.35;;;2.20;;
76854;SDS011;66343;44.588;33.450;2023-07-13T12:29:56;6.45;;;1.77;;
76854;SDS011;66343;44.588;33.450;2023-07-13T12:33:11;6.78;;;2.10;;
76854;SDS011;66343;44.588;33.450;2023-07-13T12:35:48;5.18;;;1.70;;
76854;SDS011;66343;44.588;33.450;2023-07-13T12:38:26;5.40;;;2.00;;
76854;SDS011;66343;44.588;33.450;2023-07-13T12:41:00;5.90;;;1.88;;
76854;SDS011;66343;44.588;33.450;2023-07-13T12:43:38;6.45;;;2.03;;
76854;SDS011;66343;44.588;33.450;2023-07-13T12:46:19;5.45;;;1.88;;
76854;SDS011;66343;44.588;33.450;2023-07-13T12:48:56;5.32;;;1.73;;
76854;SDS011;66343;44.588;33.450;2023-07-13T12:51:55;7.88;;;2.83;;
76854;SDS011;66343;44.588;33.450;2023-07-13T12:54:28;5.07;;;1.83;;
76854;SDS011;66343;44.588;33.450;2023-07-13T12:57:03;6.82;;;1.92;;
76854;SDS011;66343;44.588;33.450;2023-07-13T12:59:51;5.93;;;2.03;;
76854;SDS011;66343;44.588;33.450;2023-07-13T13:02:32;7.07;;;2.00;;
76854;SDS011;66343;44.588;33.450;2023-07-13T13:07:40;5.95;;;2.08;;
76854;SDS011;66343;44.588;33.450;2023-07-13T13:10:12;7.18;;;1.90;;
76854;SDS011;66343;44.588;33.450;2023-07-13T13:12:43;6.85;;;1.83;;
76854;SDS011;66343;44.588;33.450;2023-07-13T13:15:19;7.38;;;1.75;;
76854;SDS011;66343;44.588;33.450;2023-07-13T13:17:51;7.10;;;1.77;;
76854;SDS011;66343;44.588;33.450;2023-07-13T13:20:22;5.95;;;1.48;;
76854;SDS011;66343;44.588;33.450;2023-07-13T13:22:57;9.23;;;1.90;;
76854;SDS011;66343;44.588;33.450;2023-07-13T13:25:31;6.00;;;2.03;;
76854;SDS011;66343;44.588;33.450;2023-07-13T13:28:02;7.78;;;2.13;;
76854;SDS011;66343;44.588;33.450;2023-07-13T13:30:34;10.23;;;2.08;;
76854;SDS011;66343;44.588;33.450;2023-07-13T13:33:10;6.38;;;1.77;;
76854;SDS011;66343;44.588;33.450;2023-07-13T13:35:43;6.80;;;1.95;;
76854;SDS011;66343;44.588;33.450;2023-07-13T13:40:48;7.07;;;1.80;;
76854;SDS011;66343;44.588;33.450;2023-07-13T13:43:22;8.00;;;2.35;;
76854;SDS011;66343;44.588;33.450;2023-07-13T13:45:57;6.70;;;2.00;;
76854;SDS011;66343;44.588;33.450;2023-07-13T13:48:35;6.85;;;2.15;;
76854;SDS011;66343;44.588;33.450;2023-07-13T13:51:14;6.68;;;2.40;;
76854;SDS011;66343;44.588;33.450;2023-07-13T13:53:48;7.10;;;2.17;;
76854;SDS011;66343;44.588;33.450;2023-07-13T13:56:21;6.82;;;1.95;;
76854;SDS011;66343;44.588;33.450;2023-07-13T13:58:52;6.55;;;1.80;;
76854;SDS011;66343;44.588;33.450;2023-07-13T14:01:27;7.45;;;1.90;;
76854;SDS011;66343;44.588;33.450;2023-07-13T14:04:00;7.45;;;2.35;;
76854;SDS011;66343;44.588;33.450;2023-07-13T14:06:30;7.53;;;2.20;;
76854;SDS011;66343;44.588;33.450;2023-07-13T14:09:04;9.07;;;2.45;;
76854;SDS011;66343;44.588;33.450;2023-07-13T14:11:38;7.35;;;2.00;;
76854;SDS011;66343;44.588;33.450;2023-07-13T14:14:16;7.03;;;2.08;;
76854;SDS011;66343;44.588;33.450;2023-07-13T14:16:50;5.80;;;2.00;;
76854;SDS011;66343;44.588;33.450;2023-07-13T14:19:23;8.18;;;2.20;;
76854;SDS011;66343;44.588;33.450;2023-07-13T14:21:55;7.75;;;2.50;;
76854;SDS011;66343;44.588;33.450;2023-07-13T14:24:28;6.43;;;2.15;;
76854;SDS011;66343;44.588;33.450;2023-07-13T14:27:01;5.63;;;2.15;;
76854;SDS011;66343;44.588;33.450;2023-07-13T14:29:30;7.63;;;2.03;;
76854;SDS011;66343;44.588;33.450;2023-07-13T14:32:07;6.00;;;2.20;;
76854;SDS011;66343;44.588;33.450;2023-07-13T14:34:41;5.93;;;2.08;;
76854;SDS011;66343;44.588;33.450;2023-07-13T14:37:15;6.28;;;2.10;;
76854;SDS011;66343;44.588;33.450;2023-07-13T14:39:45;6.55;;;1.90;;
76854;SDS011;66343;44.588;33.450;2023-07-13T14:42:19;5.70;;;2.00;;
76854;SDS011;66343;44.588;33.450;2023-07-13T14:44:53;6.00;;;1.92;;
76854;SDS011;66343;44.588;33.450;2023-07-13T14:47:26;7.00;;;2.10;;
76854;SDS011;66343;44.588;33.450;2023-07-13T14:49:59;5.40;;;2.10;;
76854;SDS011;66343;44.588;33.450;2023-07-13T14:52:32;5.50;;;2.00;;
76854;SDS011;66343;44.588;33.450;2023-07-13T14:55:02;5.43;;;1.73;;
76854;SDS011;66343;44.588;33.450;2023-07-13T14:57:34;6.70;;;2.13;;
76854;SDS011;66343;44.588;33.450;2023-07-13T15:00:17;6.97;;;2.20;;
76854;SDS011;66343;44.588;33.450;2023-07-13T15:02:51;7.28;;;2.38;;
76854;SDS011;66343;44.588;33.450;2023-07-13T15:05:26;6.15;;;2.17;;
76854;SDS011;66343;44.588;33.450;2023-07-13T15:08:01;7.35;;;2.13;;
76854;SDS011;66343;44.588;33.450;2023-07-13T15:10:40;5.70;;;2.38;;
76854;SDS011;66343;44.588;33.450;2023-07-13T15:15:49;5.72;;;2.15;;
76854;SDS011;66343;44.588;33.450;2023-07-13T15:18:23;7.32;;;2.25;;
76854;SDS011;66343;44.588;33.450;2023-07-13T15:20:56;5.80;;;1.75;;
76854;SDS011;66343;44.588;33.450;2023-07-13T15:23:33;7.70;;;2.35;;
76854;SDS011;66343;44.588;33.450;2023-07-13T15:26:13;5.80;;;1.98;;
76854;SDS011;66343;44.588;33.450;2023-07-13T15:28:45;6.70;;;1.90;;
76854;SDS011;66343;44.588;33.450;2023-07-13T15:31:23;7.82;;;1.92;;
76854;SDS011;66343;44.588;33.450;2023-07-13T15:33:56;7.18;;;2.22;;
76854;SDS011;66343;44.588;33.450;2023-07-13T15:36:28;6.72;;;1.80;;
76854;SDS011;66343;44.588;33.450;2023-07-13T15:39:05;6.35;;;1.92;;
76854;SDS011;66343;44.588;33.450;2023-07-13T15:41:39;5.47;;;1.98;;
76854;SDS011;66343;44.588;33.450;2023-07-13T15:44:23;5.32;;;2.00;;
76854;SDS011;66343;44.588;33.450;2023-07-13T15:46:57;6.68;;;2.30;;
76854;SDS011;66343;44.588;33.450;2023-07-13T15:49:30;7.60;;;2.20;;
76854;SDS011;66343;44.588;33.450;2023-07-13T15:52:02;6.60;;;2.35;;
76854;SDS011;66343;44.588;33.450;2023-07-13T15:54:33;7.07;;;2.10;;
76854;SDS011;66343;44.588;33.450;2023-07-13T15:57:03;6.10;;;2.13;;
76854;SDS011;66343;44.588;33.450;2023-07-13T15:59:34;8.20;;;2.20;;
76854;SDS011;66343;44.588;33.450;2023-07-13T16:02:18;6.03;;;2.20;;
76854;SDS011;66343;44.588;33.450;2023-07-13T16:04:51;6.45;;;1.80;;
76854;SDS011;66343;44.588;33.450;2023-07-13T16:07:26;7.50;;;2.05;;
76854;SDS011;66343;44.588;33.450;2023-07-13T16:09:58;7.85;;;2.45;;
76854;SDS011;66343;44.588;33.450;2023-07-13T16:12:29;5.40;;;2.00;;
76854;SDS011;66343;44.588;33.450;2023-07-13T16:15:15;6.05;;;1.70;;
76854;SDS011;66343;44.588;33.450;2023-07-13T16:17:47;6.10;;;2.20;;
76854;SDS011;66343;44.588;33.450;2023-07-13T16:20:18;8.63;;;2.53;;
76854;SDS011;66343;44.588;33.450;2023-07-13T16:22:53;6.95;;;2.05;;